createdAt,value
2022-09-06T00:02:03.220Z,22.12
2022-09-06T00:05:10.940Z,22.01
2022-09-06T00:08:17.203Z,22.02
2022-09-06T00:11:22.888Z,22.01
2022-09-06T00:14:28.736Z,22.06
2022-09-06T00:17:34.748Z,22.03
2022-09-06T00:20:42.062Z,21.79
2022-09-06T00:23:48.640Z,21.88
2022-09-06T00:26:54.523Z,21.90
2022-09-06T00:30:00.783Z,21.93
2022-09-06T00:33:06.570Z,21.96
2022-09-06T00:36:13.488Z,21.88
2022-09-06T00:39:18.819Z,21.72
2022-09-06T00:42:24.127Z,21.72
2022-09-06T00:45:30.957Z,21.84
2022-09-06T00:48:39.550Z,21.71
2022-09-06T00:51:45.077Z,21.62
2022-09-06T00:54:52.005Z,21.77
2022-09-06T00:57:58.196Z,21.67
2022-09-06T01:01:03.359Z,21.63
2022-09-06T01:04:09.573Z,21.51
2022-09-06T01:07:31.877Z,21.55
2022-09-06T01:11:13.737Z,21.42
2022-09-06T01:14:53.252Z,21.46
2022-09-06T01:18:13.851Z,21.50
2022-09-06T01:21:41.634Z,21.51
2022-09-06T01:25:28.803Z,21.30
2022-09-06T01:28:34.779Z,21.40
2022-09-06T01:32:05.269Z,21.29
2022-09-06T01:35:16.072Z,21.37
2022-09-06T01:38:22.014Z,21.30
2022-09-06T01:41:27.856Z,21.27
2022-09-06T01:44:34.970Z,21.26
2022-09-06T01:48:00.704Z,21.29
2022-09-06T01:51:27.174Z,21.20
2022-09-06T01:54:32.506Z,21.24
2022-09-06T01:57:59.803Z,21.37
2022-09-06T02:01:23.023Z,21.38
2022-09-06T02:04:54.449Z,21.27
2022-09-06T02:08:24.245Z,21.18
2022-09-06T02:11:32.424Z,21.18
2022-09-06T02:14:47.172Z,21.31
2022-09-06T02:18:06.579Z,21.30
2022-09-06T02:21:15.785Z,21.09
2022-09-06T02:24:29.164Z,21.21
2022-09-06T02:27:35.001Z,21.25
2022-09-06T02:30:49.654Z,21.14
2022-09-06T02:33:56.933Z,21.20
2022-09-06T02:37:02.488Z,21.15
2022-09-06T02:40:09.220Z,20.98
2022-09-06T02:43:15.044Z,21.03
2022-09-06T02:46:20.690Z,21.07
2022-09-06T02:49:26.327Z,20.80
2022-09-06T02:52:31.894Z,20.84
2022-09-06T02:55:38.836Z,20.94
2022-09-06T02:58:44.827Z,20.92
2022-09-06T03:01:50.252Z,20.90
2022-09-06T03:04:55.742Z,20.66
2022-09-06T03:08:01.949Z,20.91
2022-09-06T03:11:07.798Z,21.07
2022-09-06T03:14:13.160Z,20.94
2022-09-06T03:17:21.870Z,21.09
2022-09-06T03:20:27.669Z,20.82
2022-09-06T03:23:32.939Z,20.58
2022-09-06T03:31:41.556Z,20.74
2022-09-06T03:34:46.607Z,20.65
2022-09-06T03:37:52.495Z,20.62
2022-09-06T03:40:58.433Z,20.60
2022-09-06T03:49:02.205Z,20.53
2022-09-06T03:52:08.049Z,20.61
2022-09-06T03:55:13.661Z,20.62
2022-09-06T03:58:22.702Z,20.56
2022-09-06T04:01:28.705Z,20.52
2022-09-06T04:04:34.228Z,20.44
2022-09-06T04:07:39.829Z,20.43
2022-09-06T04:10:45.552Z,20.40
2022-09-06T04:13:50.765Z,20.51
2022-09-06T04:16:56.220Z,20.58
2022-09-06T04:20:01.963Z,20.56
2022-09-06T04:23:07.897Z,20.55
2022-09-06T04:26:13.536Z,20.57
2022-09-06T04:29:18.814Z,20.41
2022-09-06T04:32:24.668Z,20.59
2022-09-06T04:35:30.029Z,20.47
2022-09-06T04:38:38.342Z,20.52
2022-09-06T04:41:43.453Z,20.46
2022-09-06T04:44:48.645Z,20.54
2022-09-06T04:47:53.775Z,20.56
2022-09-06T04:50:59.400Z,20.56
2022-09-06T04:54:05.224Z,20.59
2022-09-06T04:57:10.662Z,20.53
2022-09-06T05:00:16.164Z,20.55
2022-09-06T05:03:21.956Z,20.69
2022-09-06T05:06:26.970Z,20.43
2022-09-06T05:09:34.149Z,20.42
2022-09-06T05:12:43.620Z,20.55
2022-09-06T05:15:49.644Z,20.67
2022-09-06T05:18:54.816Z,20.73
2022-09-06T05:22:00.126Z,20.77
2022-09-06T05:25:06.233Z,20.90
2022-09-06T05:28:11.835Z,20.96
2022-09-06T05:31:29.833Z,21.07
2022-09-06T05:34:35.112Z,21.11
2022-09-06T05:37:40.332Z,21.02
2022-09-06T05:40:45.953Z,20.75
2022-09-06T05:43:51.223Z,20.97
2022-09-06T05:46:56.674Z,20.78
2022-09-06T05:50:03.779Z,21.03
2022-09-06T05:53:09.413Z,21.23
2022-09-06T05:56:16.467Z,21.29
2022-09-06T05:59:21.380Z,21.55
2022-09-06T06:02:26.730Z,21.58
2022-09-06T06:05:32.081Z,21.52
2022-09-06T06:08:37.553Z,21.57
2022-09-06T06:11:43.680Z,21.73
2022-09-06T06:14:49.422Z,21.94
2022-09-06T06:17:54.702Z,21.98
2022-09-06T06:21:21.836Z,22.08
2022-09-06T06:24:28.380Z,22.25
2022-09-06T06:27:35.669Z,22.41
2022-09-06T06:30:41.114Z,22.54
2022-09-06T06:33:46.750Z,22.65
2022-09-06T06:36:52.598Z,22.66
2022-09-06T06:39:59.455Z,22.75
2022-09-06T06:43:05.339Z,22.66
2022-09-06T06:46:16.093Z,22.89
2022-09-06T06:49:22.187Z,22.86
2022-09-06T06:52:27.612Z,23.14
2022-09-06T06:55:32.601Z,23.21
2022-09-06T06:58:38.026Z,23.30
2022-09-06T07:01:43.760Z,23.35
2022-09-06T07:04:49.886Z,23.38
2022-09-06T07:07:55.868Z,23.53
2022-09-06T07:11:01.587Z,23.70
2022-09-06T07:14:07.210Z,23.65
2022-09-06T07:17:12.581Z,23.78
2022-09-06T07:20:17.776Z,23.65
2022-09-06T07:30:17.159Z,23.92
2022-09-06T07:33:23.979Z,24.04
2022-09-06T07:36:29.252Z,24.05
2022-09-06T07:39:34.637Z,24.11
2022-09-06T07:42:40.196Z,24.23
2022-09-06T07:45:45.904Z,24.16
2022-09-06T07:48:51.581Z,24.26
2022-09-06T07:51:57.380Z,24.25
2022-09-06T07:55:03.143Z,24.41
2022-09-06T07:58:08.970Z,24.51
2022-09-06T08:01:19.715Z,24.53
2022-09-06T08:04:25.447Z,24.78
2022-09-06T08:10:44.048Z,24.77
2022-09-06T08:13:51.577Z,24.93
2022-09-06T08:16:57.242Z,25.01
2022-09-06T08:20:06.532Z,25.04
2022-09-06T08:23:12.511Z,24.96
2022-09-06T08:26:21.383Z,25.07
2022-09-06T08:29:27.772Z,25.05
2022-09-06T08:32:38.716Z,25.18
2022-09-06T08:35:44.619Z,25.42
2022-09-06T08:38:50.359Z,25.55
2022-09-06T08:42:06.281Z,25.62
2022-09-06T08:45:16.474Z,25.60
2022-09-06T08:48:24.228Z,25.41
2022-09-06T08:52:16.686Z,25.39
2022-09-06T08:56:08.475Z,25.54
2022-09-06T08:59:18.092Z,25.66
2022-09-06T09:02:23.779Z,25.58
2022-09-06T09:05:38.533Z,25.75
2022-09-06T09:09:06.342Z,25.90
2022-09-06T09:12:16.570Z,26.02
2022-09-06T09:15:23.135Z,26.20
2022-09-06T09:18:33.865Z,26.32
2022-09-06T09:21:40.867Z,26.29
2022-09-06T09:24:49.033Z,26.41
2022-09-06T09:27:59.527Z,26.22
2022-09-06T09:31:07.195Z,26.34
2022-09-06T09:34:15.668Z,26.40
2022-09-06T09:41:01.542Z,26.40
2022-09-06T09:44:12.333Z,26.67
2022-09-06T09:47:33.065Z,26.51
2022-09-06T09:50:38.441Z,26.68
2022-09-06T09:53:55.461Z,26.73
2022-09-06T09:57:01.371Z,26.67
2022-09-06T10:00:13.590Z,26.95
2022-09-06T10:03:25.047Z,26.86
2022-09-06T10:10:07.935Z,26.80
2022-09-06T10:13:22.705Z,26.79
2022-09-06T10:16:45.379Z,27.03
2022-09-06T10:19:51.253Z,27.04
2022-09-06T10:26:55.382Z,27.15
2022-09-06T10:30:08.724Z,27.23
2022-09-06T10:33:41.314Z,27.30
2022-09-06T10:37:10.661Z,27.44
2022-09-06T10:40:24.645Z,27.27
2022-09-06T10:43:39.145Z,27.38
2022-09-06T10:46:46.652Z,27.45
2022-09-06T10:49:59.508Z,27.56
2022-09-06T10:53:41.348Z,27.65
2022-09-06T10:57:04.755Z,27.54
2022-09-06T11:00:13.615Z,27.63
2022-09-06T11:07:07.499Z,27.92
2022-09-06T11:10:34.016Z,27.81
2022-09-06T11:13:39.660Z,27.82
2022-09-06T11:17:05.163Z,28.07
2022-09-06T11:20:32.096Z,28.09
2022-09-06T11:24:01.149Z,28.04
2022-09-06T11:27:13.000Z,28.14
2022-09-06T11:30:19.417Z,28.06
2022-09-06T11:33:40.212Z,28.25
2022-09-06T11:36:58.473Z,28.45
2022-09-06T11:40:28.336Z,28.17
2022-09-06T11:43:54.557Z,28.35
2022-09-06T11:47:01.562Z,28.47
2022-09-06T11:50:22.116Z,28.35
2022-09-06T11:53:32.326Z,28.37
2022-09-06T11:57:00.190Z,28.31
2022-09-06T12:00:09.195Z,28.40
2022-09-06T12:04:05.538Z,28.64
2022-09-06T12:07:14.622Z,28.69
2022-09-06T12:10:32.037Z,28.63
2022-09-06T12:13:48.969Z,28.76
2022-09-06T12:17:05.133Z,28.41
2022-09-06T12:20:11.803Z,28.54
2022-09-06T12:23:35.639Z,28.71
2022-09-06T12:27:07.354Z,28.90
2022-09-06T12:30:14.321Z,28.95
2022-09-06T12:33:39.240Z,28.94
2022-09-06T12:37:13.847Z,29.10
2022-09-06T12:40:21.041Z,29.32
2022-09-06T12:43:27.388Z,29.29
2022-09-06T12:46:33.350Z,29.19
2022-09-06T12:49:39.310Z,29.13
2022-09-06T12:52:51.785Z,29.33
2022-09-06T12:56:25.270Z,29.31
2022-09-06T12:59:31.605Z,29.13
2022-09-06T13:03:00.737Z,29.27
2022-09-06T13:06:07.585Z,29.44
2022-09-06T13:09:18.254Z,29.43
2022-09-06T13:12:33.069Z,29.47
2022-09-06T13:15:39.215Z,29.50
2022-09-06T13:18:44.738Z,29.50
2022-09-06T13:21:50.368Z,29.40
2022-09-06T13:24:56.952Z,29.61
2022-09-06T13:28:03.645Z,29.81
2022-09-06T13:31:18.206Z,29.81
2022-09-06T13:34:34.277Z,29.77
2022-09-06T13:37:41.655Z,29.82
2022-09-06T13:41:11.519Z,29.86
2022-09-06T13:44:21.690Z,29.96
2022-09-06T13:47:29.181Z,29.82
2022-09-06T13:50:34.440Z,29.77
2022-09-06T13:53:39.700Z,29.79
2022-09-06T13:56:45.091Z,29.81
2022-09-06T13:59:50.768Z,29.88
2022-09-06T14:02:56.769Z,29.97
2022-09-06T14:06:02.135Z,29.96
2022-09-06T14:09:08.693Z,30.07
2022-09-06T14:12:14.758Z,29.53
2022-09-06T14:15:20.485Z,29.53
2022-09-06T14:18:26.166Z,29.44
2022-09-06T14:21:32.525Z,29.64
2022-09-06T14:24:38.716Z,29.53
2022-09-06T14:27:44.518Z,29.82
2022-09-06T14:30:50.092Z,30.17
2022-09-06T14:33:57.373Z,29.83
2022-09-06T14:37:02.792Z,29.91
2022-09-06T14:40:08.940Z,30.06
2022-09-06T14:43:16.077Z,30.12
2022-09-06T14:46:23.857Z,30.16
2022-09-06T14:49:29.373Z,30.19
2022-09-06T14:52:36.072Z,30.05
2022-09-06T14:55:41.290Z,30.09
2022-09-06T14:58:47.088Z,29.86
2022-09-06T15:01:52.843Z,29.90
2022-09-06T15:04:58.664Z,30.11
2022-09-06T15:08:04.975Z,30.17
2022-09-06T15:11:12.618Z,30.07
2022-09-06T15:14:23.331Z,30.15
2022-09-06T15:17:29.189Z,29.99
2022-09-06T15:20:34.487Z,30.11
2022-09-06T15:23:40.721Z,30.06
2022-09-06T15:26:46.360Z,30.18
2022-09-06T15:29:51.794Z,29.93
2022-09-06T15:32:57.312Z,30.04
2022-09-06T15:36:09.194Z,30.06
2022-09-06T15:39:15.391Z,29.87
2022-09-06T15:42:20.840Z,29.91
2022-09-06T15:45:27.078Z,29.89
2022-09-06T15:48:43.564Z,29.78
2022-09-06T15:51:49.490Z,29.71
2022-09-06T15:55:13.639Z,29.73
2022-09-06T15:58:19.609Z,29.43
2022-09-06T16:01:27.249Z,29.43
2022-09-06T16:04:32.568Z,29.40
2022-09-06T16:07:41.258Z,29.55
2022-09-06T16:10:46.959Z,29.34
2022-09-06T16:13:52.050Z,29.45
2022-09-06T16:16:57.833Z,29.39
2022-09-06T16:20:05.222Z,29.45
2022-09-06T16:23:10.842Z,29.40
2022-09-06T16:26:20.740Z,29.23
2022-09-06T16:29:27.132Z,29.15
2022-09-06T16:32:32.760Z,29.08
2022-09-06T16:35:43.118Z,29.14
2022-09-06T16:38:49.188Z,29.07
2022-09-06T16:41:54.761Z,29.07
2022-09-06T16:45:00.251Z,28.95
2022-09-06T16:48:07.384Z,28.81
2022-09-06T16:51:18.702Z,28.69
2022-09-06T16:54:24.423Z,28.69
2022-09-06T16:57:30.130Z,28.65
2022-09-06T17:00:35.818Z,28.56
2022-09-06T17:03:41.298Z,28.48
2022-09-06T17:06:47.157Z,28.33
2022-09-06T17:09:52.777Z,28.30
2022-09-06T17:12:58.170Z,28.20
2022-09-06T17:16:22.641Z,28.16
2022-09-06T17:19:29.963Z,28.07
2022-09-06T17:22:35.486Z,27.94
2022-09-06T17:25:43.726Z,27.77
2022-09-06T17:28:50.469Z,27.73
2022-09-06T17:31:56.441Z,27.61
2022-09-06T17:35:03.343Z,27.61
2022-09-06T17:38:08.463Z,27.54
2022-09-06T17:41:25.932Z,27.51
2022-09-06T17:44:31.339Z,27.45
2022-09-06T17:47:37.064Z,27.29
2022-09-06T17:50:42.836Z,27.21
2022-09-06T17:53:48.533Z,27.15
2022-09-06T17:56:53.985Z,26.99
2022-09-06T17:59:59.442Z,26.94
2022-09-06T18:03:05.109Z,26.93
2022-09-06T18:06:13.798Z,26.80
2022-09-06T18:09:19.303Z,26.76
2022-09-06T18:12:25.321Z,26.66
2022-09-06T18:15:31.717Z,26.55
2022-09-06T18:18:37.671Z,26.58
2022-09-06T18:21:43.129Z,26.63
2022-09-06T18:24:49.143Z,26.62
2022-09-06T18:27:56.510Z,26.55
2022-09-06T18:31:06.335Z,26.51
2022-09-06T18:34:11.794Z,26.53
2022-09-06T18:37:17.085Z,26.36
2022-09-06T18:40:22.542Z,26.26
2022-09-06T18:43:31.580Z,26.30
2022-09-06T18:46:39.133Z,26.22
2022-09-06T18:49:45.482Z,26.19
2022-09-06T18:52:51.776Z,26.01
2022-09-06T18:55:58.041Z,26.06
2022-09-06T18:59:05.605Z,25.92
2022-09-06T19:02:11.768Z,25.88
2022-09-06T19:05:17.245Z,25.82
2022-09-06T19:08:23.176Z,25.75
2022-09-06T19:11:30.702Z,25.92
2022-09-06T19:14:36.206Z,25.96
2022-09-06T19:17:41.802Z,25.87
2022-09-06T19:21:05.539Z,25.95
2022-09-06T19:24:15.008Z,25.91
2022-09-06T19:27:20.381Z,25.96
2022-09-06T19:30:25.793Z,26.02
2022-09-06T19:33:36.197Z,25.93
2022-09-06T19:36:44.865Z,25.91
2022-09-06T19:39:50.989Z,25.95
2022-09-06T19:42:56.657Z,25.93
2022-09-06T19:46:04.762Z,25.84
2022-09-06T19:49:10.430Z,25.87
2022-09-06T19:52:15.843Z,25.73
2022-09-06T19:55:21.458Z,25.73
2022-09-06T19:58:27.892Z,25.73
2022-09-06T20:01:36.226Z,25.74
2022-09-06T20:04:42.046Z,25.61
2022-09-06T20:07:47.800Z,25.53
2022-09-06T20:10:59.774Z,25.58
2022-09-06T20:14:06.400Z,25.55
2022-09-06T20:17:32.995Z,25.53
2022-09-06T20:20:39.927Z,25.37
2022-09-06T20:23:52.961Z,25.21
2022-09-06T20:26:58.836Z,25.06
2022-09-06T20:30:04.861Z,24.89
2022-09-06T20:33:10.795Z,24.77
2022-09-06T20:36:16.768Z,24.41
2022-09-06T20:39:23.104Z,24.68
2022-09-06T20:42:28.554Z,24.58
2022-09-06T20:45:34.234Z,24.60
2022-09-06T20:48:44.200Z,24.49
2022-09-06T20:54:56.376Z,24.36
2022-09-06T20:58:02.330Z,24.29
2022-09-06T21:01:15.796Z,24.28
2022-09-06T21:04:21.991Z,24.26
2022-09-06T21:07:27.905Z,24.35
2022-09-06T21:10:34.740Z,24.25
2022-09-06T21:13:41.149Z,24.22
2022-09-06T21:16:46.264Z,24.11
2022-09-06T21:19:51.608Z,24.28
2022-09-06T21:22:57.861Z,24.16
2022-09-06T21:26:09.849Z,24.19
2022-09-06T21:29:15.092Z,24.19
2022-09-06T21:32:20.817Z,24.17
2022-09-06T21:35:25.897Z,24.09
2022-09-06T21:38:31.607Z,24.07
2022-09-06T21:41:40.169Z,24.06
2022-09-06T21:44:45.548Z,23.98
2022-09-06T21:47:52.536Z,24.10
2022-09-06T21:50:58.626Z,24.15
2022-09-06T21:54:05.294Z,24.02
2022-09-06T21:57:11.060Z,24.09
2022-09-06T22:00:16.777Z,24.08
2022-09-06T22:03:22.129Z,24.04
2022-09-06T22:06:29.822Z,23.89
2022-09-06T22:09:35.340Z,23.88
2022-09-06T22:12:42.954Z,23.93
2022-09-06T22:15:49.600Z,23.94
2022-09-06T22:18:55.315Z,23.83
2022-09-06T22:22:01.130Z,23.92
2022-09-06T22:25:07.353Z,23.95
2022-09-06T22:28:12.828Z,23.97
2022-09-06T22:31:18.550Z,23.96
2022-09-06T22:34:24.402Z,23.94
2022-09-06T22:37:29.989Z,23.93
2022-09-06T22:40:35.887Z,23.91
2022-09-06T22:43:41.131Z,23.82
2022-09-06T22:46:47.627Z,23.89
2022-09-06T22:49:52.942Z,23.93
2022-09-06T22:52:59.176Z,23.84
2022-09-06T22:56:05.028Z,23.80
2022-09-06T22:59:10.556Z,23.83
2022-09-06T23:02:16.219Z,23.79
2022-09-06T23:05:22.584Z,23.81
2022-09-06T23:08:27.759Z,23.78
2022-09-06T23:11:33.470Z,23.59
2022-09-06T23:14:38.579Z,23.68
2022-09-06T23:17:43.991Z,23.60
2022-09-06T23:20:49.661Z,23.58
2022-09-06T23:23:57.598Z,23.58
2022-09-06T23:27:05.208Z,23.54
2022-09-06T23:30:11.947Z,23.42
2022-09-06T23:33:17.663Z,23.58
2022-09-06T23:36:24.036Z,23.57
2022-09-06T23:39:29.974Z,23.53
2022-09-06T23:42:36.008Z,23.51
2022-09-06T23:45:41.724Z,23.45
2022-09-06T23:48:47.590Z,23.48
2022-09-06T23:51:54.073Z,23.46
2022-09-06T23:54:59.740Z,23.44
2022-09-06T23:58:05.760Z,23.49
